LFKJ/AJA METAR and TAF weather

Enter ICAO airport designator
Station Type Date Time Source
LFKJ METAR 2019/12/14 11:00 UTC NOAA

LFKJ 141100Z AUTO VRB05G16KT 9999 OVC026 17/11 Q1010 NOSIG


Station Type Date Time Source
LFKJ Decoded METAR 2019/12/14 11:00 UTC NOAA

Ajaccio, France (LFKJ) 41-55N 008-48E 9M
Dec 14, 2019 - 06:00 AM EST / 2019.12.14 1100 UTC
Wind: Variable at 6 MPH (5 KT) gusting to 18 MPH (16 KT):0
Visibility: greater than 7 mile(s):0
Sky conditions: overcast
Temperature: 62 F (17 C)
Dew Point: 51 F (11 C)
Relative Humidity: 67%
Pressure (altimeter): 29.83 in. Hg (1010 hPa)
ob: LFKJ 141100Z AUTO VRB05G16KT 9999 OVC026 17/11 Q1010 NOSIG
cycle: 11

Station Type Date Time Source
LFKJ TAF 2019/12/14 09:55 UTC NOAA

TAF LFKJ 140800Z 1409/1509 32010KT 9999 BKN026
FM141700 04006KT 9999 SCT030

Example: see airport list